Time;durP1;ratioP1;P1;durP2;ratioP2;P2;SDS_P1;SDS_P2;PMS_P1;PMS_P2;Temp;Humidity;BMP_temperature;BMP_pressure;BME280_temperature;BME280_humidity;BME280_pressure;Samples;Min_cycle;Max_cycle;Signal;HPM_P1;HPM_P2
2023/08/05 00:00:04;;;;;;;13.32;2.63;;;16.00;99.90;;;;;;5075061;28;20513;-85
2023/08/05 00:02:31;;;;;;;5.32;2.03;;;15.90;99.90;;;;;;5058313;28;20053;-81
2023/08/05 00:04:58;;;;;;;6.95;2.10;;;15.90;99.90;;;;;;5056584;28;20048;-80
2023/08/05 00:07:27;;;;;;;10.05;1.90;;;15.90;99.90;;;;;;5074572;28;20044;-81
2023/08/05 00:09:53;;;;;;;7.75;1.85;;;15.90;99.90;;;;;;5057760;28;20044;-84
2023/08/05 00:12:20;;;;;;;7.00;2.15;;;15.90;99.90;;;;;;5054628;28;20114;-83
2023/08/05 00:14:47;;;;;;;9.15;2.42;;;15.90;99.90;;;;;;5075234;28;20155;-85
2023/08/05 00:17:14;;;;;;;8.30;2.50;;;15.90;99.90;;;;;;5057538;28;20047;-81
2023/08/05 00:19:41;;;;;;;7.90;2.33;;;15.90;99.90;;;;;;5057132;28;20048;-85
2023/08/05 00:22:08;;;;;;;8.77;2.53;;;15.90;99.90;;;;;;5074691;28;20045;-84
2023/08/05 00:24:34;;;;;;;7.40;2.17;;;15.80;99.90;;;;;;5075286;28;20048;-80
2023/08/05 00:27:02;;;;;;;10.98;2.60;;;15.80;99.90;;;;;;5056326;28;20044;-82
2023/08/05 00:29:29;;;;;;;9.15;2.58;;;15.80;99.90;;;;;;5061893;28;20459;-80
2023/08/05 00:31:56;;;;;;;7.80;2.70;;;15.80;99.90;;;;;;5057279;28;20497;-83
2023/08/05 00:34:22;;;;;;;8.23;2.38;;;15.80;99.90;;;;;;5056762;28;20040;-86
2023/08/05 00:36:49;;;;;;;7.68;2.30;;;15.80;99.90;;;;;;5041261;28;20044;-81
2023/08/05 00:39:18;;;;;;;10.45;2.83;;;15.80;99.90;;;;;;5073856;28;20029;-83
2023/08/05 00:41:44;;;;;;;10.43;2.55;;;15.90;99.90;;;;;;5056987;28;20036;-83
2023/08/05 00:44:11;;;;;;;7.35;2.72;;;15.90;99.90;;;;;;5074876;28;20045;-84
2023/08/05 00:49:25;;;;;;;6.70;2.25;;;15.80;99.90;;;;;;5075004;28;20091;-83
2023/08/05 00:51:52;;;;;;;8.35;2.20;;;15.80;99.90;;;;;;5057187;28;20422;-81
2023/08/05 00:54:20;;;;;;;6.93;2.30;;;15.80;99.90;;;;;;5056037;28;20433;-82
2023/08/05 00:56:47;;;;;;;6.97;2.42;;;15.80;99.90;;;;;;5074874;28;20381;-82
2023/08/05 00:59:15;;;;;;;5.55;2.08;;;15.80;99.90;;;;;;5056662;28;20048;-83
2023/08/05 01:01:41;;;;;;;8.82;2.40;;;15.70;99.90;;;;;;5060317;28;20044;-80
2023/08/05 01:04:08;;;;;;;8.07;2.45;;;15.70;99.90;;;;;;5056943;28;20231;-80
2023/08/05 01:06:36;;;;;;;9.25;2.55;;;15.70;99.90;;;;;;5056199;28;20379;-81
2023/08/05 01:09:03;;;;;;;5.80;2.20;;;15.70;99.90;;;;;;5063980;28;20429;-81
2023/08/05 01:11:30;;;;;;;5.35;2.15;;;15.70;99.90;;;;;;5056642;28;20033;-85
2023/08/05 01:13:57;;;;;;;7.53;2.53;;;15.70;99.90;;;;;;5027722;28;20434;-85
2023/08/05 01:16:26;;;;;;;5.82;2.35;;;15.70;99.90;;;;;;5052380;28;20045;-83
2023/08/05 01:18:53;;;;;;;6.53;2.30;;;15.70;99.90;;;;;;5059865;28;20045;-83
2023/08/05 01:21:21;;;;;;;6.72;2.53;;;15.60;99.90;;;;;;5060768;28;20063;-82
2023/08/05 01:23:48;;;;;;;7.05;2.25;;;15.60;99.90;;;;;;5043055;28;20057;-85
2023/08/05 01:26:16;;;;;;;8.27;2.63;;;15.60;99.90;;;;;;5040043;28;20135;-82
2023/08/05 01:28:45;;;;;;;6.63;2.20;;;15.50;99.90;;;;;;5055526;28;20058;-86
2023/08/05 01:31:12;;;;;;;8.13;2.25;;;15.50;99.90;;;;;;5060614;28;20051;-85
2023/08/05 01:33:39;;;;;;;7.97;2.67;;;15.50;99.90;;;;;;5060192;28;20036;-84
2023/08/05 01:36:05;;;;;;;7.45;2.70;;;15.40;99.90;;;;;;5078349;28;20036;-82
2023/08/05 01:38:32;;;;;;;6.50;2.10;;;15.50;99.90;;;;;;5060781;28;20124;-83
2023/08/05 01:40:59;;;;;;;7.47;2.17;;;15.50;99.90;;;;;;5077364;28;20054;-81
2023/08/05 01:43:26;;;;;;;8.02;2.47;;;15.50;99.90;;;;;;5078044;28;20453;-83
2023/08/05 01:45:54;;;;;;;12.15;2.90;;;15.50;99.90;;;;;;5059483;28;20110;-85
2023/08/05 01:48:20;;;;;;;9.35;2.60;;;15.40;99.90;;;;;;5060381;28;20049;-82
2023/08/05 01:50:47;;;;;;;8.63;2.78;;;15.40;99.90;;;;;;5060318;28;20044;-82
2023/08/05 01:53:14;;;;;;;10.88;2.78;;;15.40;99.90;;;;;;5076793;28;20048;-85
2023/08/05 01:55:41;;;;;;;7.10;2.80;;;15.40;99.90;;;;;;5060037;28;20036;-85
2023/08/05 01:58:08;;;;;;;7.88;2.60;;;15.40;99.90;;;;;;5060387;28;20037;-83
2023/08/05 02:00:35;;;;;;;11.77;2.70;;;15.40;99.90;;;;;;5059238;28;20041;-81
2023/08/05 02:03:02;;;;;;;8.90;2.35;;;15.40;99.90;;;;;;5077472;28;20466;-81
2023/08/05 02:05:29;;;;;;;14.10;3.13;;;15.40;99.90;;;;;;5059321;28;20048;-81
2023/08/05 02:10:42;;;;;;;7.40;2.50;;;15.40;99.90;;;;;;5059982;28;20040;-83
2023/08/05 02:13:08;;;;;;;10.55;3.20;;;15.40;99.90;;;;;;5059053;28;20135;-85
2023/08/05 02:15:35;;;;;;;6.72;2.75;;;15.40;99.90;;;;;;5042362;28;20045;-84
2023/08/05 02:18:03;;;;;;;11.85;3.42;;;15.30;99.90;;;;;;5050854;28;20426;-85
2023/08/05 02:20:30;;;;;;;8.60;2.70;;;15.30;99.90;;;;;;5059105;28;20441;-80
2023/08/05 02:22:57;;;;;;;8.85;2.75;;;15.30;99.90;;;;;;5058571;28;20132;-83
2023/08/05 02:25:23;;;;;;;8.65;2.90;;;15.30;99.90;;;;;;5076407;28;20040;-83
2023/08/05 02:30:22;;;;;;;10.43;2.75;;;15.40;99.90;;;;;;5059490;28;20048;-82
2023/08/05 02:32:49;;;;;;;13.77;3.28;;;15.40;99.90;;;;;;5062293;28;20068;-84
2023/08/05 02:35:16;;;;;;;12.75;3.35;;;15.40;99.90;;;;;;5076977;28;20033;-81
2023/08/05 02:37:43;;;;;;;8.30;2.70;;;15.40;99.90;;;;;;5043589;28;20040;-83
2023/08/05 02:40:10;;;;;;;13.35;2.97;;;15.40;99.90;;;;;;5076322;28;20044;-81
2023/08/05 02:42:37;;;;;;;10.23;2.85;;;15.40;99.90;;;;;;5059219;28;20127;-82
2023/08/05 02:45:03;;;;;;;14.38;3.30;;;15.40;99.90;;;;;;5059096;28;20073;-85
2023/08/05 02:47:30;;;;;;;13.57;3.45;;;15.40;99.90;;;;;;5076100;28;20040;-83
2023/08/05 02:49:58;;;;;;;9.45;3.50;;;15.40;99.90;;;;;;5059544;28;20051;-84
2023/08/05 02:52:25;;;;;;;12.23;3.20;;;15.40;99.90;;;;;;5057780;28;20079;-83
2023/08/05 02:54:51;;;;;;;11.80;2.90;;;15.40;99.90;;;;;;5077662;28;20128;-83
2023/08/05 02:57:18;;;;;;;9.10;3.40;;;15.40;99.90;;;;;;5059334;28;20398;-81
2023/08/05 02:59:45;;;;;;;9.63;3.13;;;15.30;99.90;;;;;;5037632;28;20041;-83
2023/08/05 03:02:12;;;;;;;10.10;3.22;;;15.30;99.90;;;;;;5049318;28;20064;-82
2023/08/05 03:04:39;;;;;;;12.18;3.13;;;15.40;99.90;;;;;;5042245;28;20044;-83
2023/08/05 03:07:05;;;;;;;10.85;3.25;;;15.40;99.90;;;;;;5058118;28;20434;-85
2023/08/05 03:09:32;;;;;;;10.27;3.05;;;15.30;99.90;;;;;;5042287;28;20055;-80
2023/08/05 03:12:00;;;;;;;7.57;3.05;;;15.40;99.90;;;;;;5041364;28;20051;-83
2023/08/05 03:14:27;;;;;;;10.65;3.28;;;15.30;99.90;;;;;;5058990;28;20039;-84
2023/08/05 03:16:55;;;;;;;8.88;3.05;;;15.30;99.90;;;;;;5071212;28;20079;-86
2023/08/05 03:19:22;;;;;;;10.73;3.28;;;15.30;99.90;;;;;;5058121;28;20055;-84
2023/08/05 03:21:51;;;;;;;10.68;3.70;;;15.30;99.90;;;;;;5042321;28;20049;-86
2023/08/05 03:24:18;;;;;;;11.65;3.65;;;15.20;99.90;;;;;;5058582;28;20543;-84
2023/08/05 03:26:51;;;;;;;8.02;3.38;;;15.20;99.90;;;;;;5041853;28;20040;-81
2023/08/05 03:29:18;;;;;;;14.07;3.88;;;15.20;99.90;;;;;;5058730;28;20352;-81
2023/08/05 03:31:47;;;;;;;11.55;3.60;;;15.20;99.90;;;;;;5042091;28;20040;-78
2023/08/05 03:34:17;;;;;;;14.70;3.75;;;15.20;99.90;;;;;;5057473;28;20471;-84
2023/08/05 03:39:31;;;;;;;12.70;3.95;;;15.10;99.90;;;;;;5075307;28;20043;-82
2023/08/05 03:41:57;;;;;;;10.93;3.95;;;15.10;99.90;;;;;;5075579;28;20075;-83
2023/08/05 03:44:24;;;;;;;11.80;3.67;;;15.00;99.90;;;;;;5058092;28;20072;-80
2023/08/05 03:46:54;;;;;;;13.20;3.88;;;15.00;99.90;;;;;;5057182;28;20113;-83
2023/08/05 03:49:21;;;;;;;14.73;3.97;;;15.00;99.90;;;;;;5058327;28;20443;-83
2023/08/05 03:51:47;;;;;;;9.63;3.45;;;15.00;99.90;;;;;;5057533;28;20050;-81
2023/08/05 03:54:15;;;;;;;12.80;3.97;;;15.00;99.90;;;;;;5040627;28;20476;-82
2023/08/05 03:59:12;;;;;;;18.45;4.38;;;14.90;99.90;;;;;;5057045;28;20067;-82
2023/08/05 04:01:38;;;;;;;12.10;3.83;;;14.90;99.90;;;;;;5057482;28;20451;-81
2023/08/05 04:04:05;;;;;;;13.90;4.10;;;14.90;99.90;;;;;;5041765;28;20052;-83
2023/08/05 04:06:32;;;;;;;15.88;4.47;;;14.90;99.90;;;;;;5057080;28;20105;-82
2023/08/05 04:08:59;;;;;;;16.13;4.72;;;14.90;99.90;;;;;;5057738;28;20052;-83
2023/08/05 04:11:26;;;;;;;10.68;4.15;;;14.80;99.90;;;;;;5057639;28;20070;-84
2023/08/05 04:13:57;;;;;;;17.63;4.32;;;14.80;99.90;;;;;;5052498;28;20041;-85
2023/08/05 04:16:24;;;;;;;12.75;3.75;;;14.80;99.90;;;;;;5048927;28;20044;-83
2023/08/05 04:18:52;;;;;;;13.50;4.32;;;14.80;99.90;;;;;;5074767;28;20033;-82
2023/08/05 04:21:23;;;;;;;14.10;4.20;;;14.80;99.90;;;;;;5057167;28;20147;-85
2023/08/05 04:23:50;;;;;;;12.23;4.35;;;14.80;99.90;;;;;;5057809;28;20095;-82
2023/08/05 04:26:17;;;;;;;14.27;4.03;;;14.80;99.90;;;;;;5056676;28;20041;-83
2023/08/05 04:28:44;;;;;;;10.80;3.72;;;14.80;99.90;;;;;;5057487;28;20115;-82
2023/08/05 04:31:11;;;;;;;12.73;4.85;;;14.80;99.90;;;;;;5040491;28;20106;-84
2023/08/05 04:33:38;;;;;;;15.82;4.68;;;14.70;99.90;;;;;;5074178;28;20032;-81
2023/08/05 04:36:05;;;;;;;12.85;4.72;;;14.70;99.90;;;;;;5057606;28;20098;-83
2023/08/05 04:38:31;;;;;;;12.38;4.00;;;14.80;99.90;;;;;;5057534;28;20417;-83
2023/08/05 04:40:58;;;;;;;12.35;4.03;;;14.80;99.90;;;;;;5073640;28;20378;-80
2023/08/05 04:43:25;;;;;;;14.77;4.80;;;14.70;99.90;;;;;;5040701;28;20052;-82
2023/08/05 04:45:51;;;;;;;16.50;4.63;;;14.70;99.90;;;;;;5072984;28;20048;-84
2023/08/05 04:48:18;;;;;;;15.18;5.05;;;14.70;99.90;;;;;;5049436;28;20049;-82
2023/08/05 04:50:45;;;;;;;12.07;4.05;;;14.70;99.90;;;;;;5068138;28;20128;-81
2023/08/05 04:53:12;;;;;;;11.50;4.22;;;14.60;99.90;;;;;;5059846;28;20047;-85
2023/08/05 04:55:38;;;;;;;13.43;4.55;;;14.60;99.90;;;;;;5074666;28;20070;-85
2023/08/05 04:58:08;;;;;;;12.18;4.43;;;14.70;99.90;;;;;;5074737;28;20429;-85
2023/08/05 05:00:35;;;;;;;15.18;5.00;;;14.60;99.90;;;;;;5056051;28;20144;-84
2023/08/05 05:03:01;;;;;;;11.88;4.40;;;14.60;99.90;;;;;;5056693;28;20127;-82
2023/08/05 05:05:28;;;;;;;14.02;5.30;;;14.60;99.90;;;;;;5073939;28;20094;-84
2023/08/05 05:07:55;;;;;;;15.10;4.75;;;14.60;99.90;;;;;;5056762;28;20087;-86
2023/08/05 05:10:22;;;;;;;14.43;4.55;;;14.60;99.90;;;;;;5040362;28;20102;-83
2023/08/05 05:12:49;;;;;;;22.00;5.25;;;14.60;99.90;;;;;;5055869;28;20087;-84
2023/08/05 05:15:16;;;;;;;11.88;4.57;;;14.60;99.90;;;;;;5057228;28;20525;-81
2023/08/05 05:17:44;;;;;;;15.00;5.28;;;14.60;99.90;;;;;;5056909;28;20505;-85
2023/08/05 05:20:10;;;;;;;19.20;5.15;;;14.60;99.90;;;;;;5055883;28;20139;-82
2023/08/05 05:22:37;;;;;;;17.77;5.53;;;14.60;99.90;;;;;;5056347;28;20463;-83
2023/08/05 05:25:04;;;;;;;17.88;5.68;;;14.60;99.90;;;;;;5040267;28;20052;-82
2023/08/05 05:27:33;;;;;;;17.60;5.47;;;14.60;99.90;;;;;;5056106;28;20112;-85
2023/08/05 05:29:59;;;;;;;16.48;4.55;;;14.70;99.90;;;;;;5056879;28;20052;-83
2023/08/05 05:32:26;;;;;;;16.58;5.22;;;14.70;99.90;;;;;;5055650;28;20036;-81
2023/08/05 05:34:53;;;;;;;12.40;4.68;;;14.60;99.90;;;;;;5074205;28;20454;-81
2023/08/05 05:40:07;;;;;;;15.43;5.13;;;14.80;99.90;;;;;;5055696;28;20110;-83
2023/08/05 05:42:35;;;;;;;15.27;5.32;;;14.80;99.90;;;;;;5074171;28;20128;-83
2023/08/05 05:45:02;;;;;;;15.98;5.25;;;14.80;99.90;;;;;;5074307;28;20052;-85
2023/08/05 05:47:29;;;;;;;16.38;5.22;;;14.90;99.90;;;;;;5073155;28;20072;-85
2023/08/05 05:49:56;;;;;;;14.77;5.85;;;14.90;99.90;;;;;;5056980;28;20051;-81
2023/08/05 05:52:23;;;;;;;14.15;5.20;;;15.00;99.90;;;;;;5055592;28;20044;-85
2023/08/05 05:54:49;;;;;;;14.73;4.93;;;15.00;99.90;;;;;;5074521;28;20063;-85
2023/08/05 05:57:19;;;;;;;19.73;6.30;;;14.90;99.90;;;;;;5058536;28;20482;-84
2023/08/05 05:59:46;;;;;;;15.13;5.22;;;14.90;99.90;;;;;;5059513;28;20451;-82
2023/08/05 06:02:12;;;;;;;17.73;5.43;;;14.80;99.90;;;;;;5077541;28;20041;-83
2023/08/05 06:04:39;;;;;;;12.13;4.95;;;14.80;99.90;;;;;;5077646;28;20043;-82
2023/08/05 06:07:07;;;;;;;19.10;5.45;;;14.70;99.90;;;;;;5053799;28;20054;-87
2023/08/05 06:09:34;;;;;;;16.15;5.22;;;14.80;99.90;;;;;;5075120;28;20120;-86
2023/08/05 06:12:01;;;;;;;16.08;5.93;;;14.70;99.90;;;;;;5046278;28;20080;-84
2023/08/05 06:14:31;;;;;;;16.00;5.78;;;14.70;99.90;;;;;;5053806;28;20094;-84
2023/08/05 06:17:00;;;;;;;17.02;5.78;;;14.70;99.90;;;;;;5076217;28;20058;-82
2023/08/05 06:19:27;;;;;;;13.75;5.40;;;14.70;99.90;;;;;;5059290;28;20044;-84
2023/08/05 06:21:53;;;;;;;21.77;5.47;;;14.70;99.90;;;;;;5059328;28;20471;-81
2023/08/05 06:24:20;;;;;;;16.58;5.53;;;14.70;99.90;;;;;;5077314;28;20070;-85
2023/08/05 06:26:48;;;;;;;14.38;5.20;;;14.70;99.90;;;;;;5076523;28;20508;-85
2023/08/05 06:29:15;;;;;;;16.27;5.43;;;14.70;99.90;;;;;;5059341;28;20098;-84
2023/08/05 06:31:42;;;;;;;14.40;5.38;;;14.70;99.90;;;;;;5076948;28;20037;-83
2023/08/05 06:34:09;;;;;;;15.95;6.80;;;14.70;99.90;;;;;;5076858;28;20041;-82
2023/08/05 06:36:37;;;;;;;24.67;5.63;;;14.80;99.90;;;;;;5076855;28;20111;-83
2023/08/05 06:39:04;;;;;;;21.38;6.00;;;14.70;99.90;;;;;;5076508;28;20045;-82
2023/08/05 06:41:31;;;;;;;23.17;5.70;;;14.70;99.90;;;;;;5059183;28;20059;-83
2023/08/05 06:43:58;;;;;;;15.88;5.55;;;14.80;99.90;;;;;;5070795;28;20047;-80
2023/08/05 06:46:25;;;;;;;14.68;6.30;;;14.80;99.90;;;;;;5058591;28;20131;-83
2023/08/05 06:48:52;;;;;;;14.13;5.40;;;14.80;99.90;;;;;;5046847;28;20055;-82
2023/08/05 06:51:19;;;;;;;15.57;5.88;;;14.80;99.90;;;;;;5057524;28;20143;-82
2023/08/05 06:53:46;;;;;;;18.52;6.68;;;14.70;99.90;;;;;;5076151;28;20045;-82
2023/08/05 06:56:14;;;;;;;14.07;5.43;;;14.60;99.90;;;;;;5060114;28;20044;-85
2023/08/05 06:58:40;;;;;;;15.25;5.63;;;14.50;99.90;;;;;;5076540;28;20067;-87
2023/08/05 07:01:07;;;;;;;20.17;5.93;;;14.50;99.90;;;;;;5059581;28;20124;-82
2023/08/05 07:03:34;;;;;;;14.90;6.07;;;14.50;99.90;;;;;;5059393;28;20044;-85
2023/08/05 07:06:02;;;;;;;13.90;5.47;;;14.40;99.90;;;;;;5057761;28;20048;-85
2023/08/05 07:08:29;;;;;;;17.25;5.68;;;14.40;99.90;;;;;;5058427;28;20063;-83
2023/08/05 07:10:56;;;;;;;17.85;5.82;;;14.30;99.90;;;;;;5075895;28;20044;-81
2023/08/05 07:13:22;;;;;;;24.42;6.60;;;14.30;99.90;;;;;;5061362;28;20124;-81
2023/08/05 07:15:51;;;;;;;17.15;6.18;;;14.30;99.90;;;;;;5058957;28;20447;-84
2023/08/05 07:18:18;;;;;;;20.05;5.97;;;14.20;99.90;;;;;;5059151;28;20467;-82
2023/08/05 07:20:46;;;;;;;16.50;5.95;;;14.20;99.90;;;;;;5073220;28;20514;-86
2023/08/05 07:23:12;;;;;;;16.90;6.28;;;14.20;99.90;;;;;;5058682;28;20068;-81
2023/08/05 07:25:39;;;;;;;13.20;5.22;;;14.30;99.90;;;;;;5057848;28;20458;-85
2023/08/05 07:28:07;;;;;;;14.05;4.63;;;14.40;99.90;;;;;;5058758;28;20045;-83
2023/08/05 07:30:33;;;;;;;16.25;5.60;;;14.40;99.90;;;;;;5058099;28;20088;-82
2023/08/05 07:33:00;;;;;;;17.23;5.57;;;14.50;99.90;;;;;;5075254;28;20068;-84
2023/08/05 07:35:27;;;;;;;18.48;5.43;;;14.60;99.90;;;;;;5075768;28;20040;-83
2023/08/05 07:37:55;;;;;;;14.88;5.45;;;14.50;99.90;;;;;;5061049;28;20076;-84
2023/08/05 07:40:22;;;;;;;19.45;6.07;;;14.50;99.90;;;;;;5074807;28;20064;-83
2023/08/05 07:42:49;;;;;;;23.65;7.57;;;14.50;99.90;;;;;;5057776;28;20102;-83
2023/08/05 07:45:18;;;;;;;18.88;5.60;;;14.50;99.90;;;;;;5075594;28;20060;-84
2023/08/05 07:47:46;;;;;;;14.13;5.63;;;14.50;99.90;;;;;;5057395;28;20481;-83
2023/08/05 07:50:16;;;;;;;15.38;5.95;;;14.50;99.90;;;;;;5075315;28;20040;-83
2023/08/05 07:52:43;;;;;;;15.23;5.90;;;14.50;99.90;;;;;;5056682;28;20044;-84
2023/08/05 07:55:10;;;;;;;13.38;5.68;;;14.50;99.90;;;;;;5048241;28;20123;-82
2023/08/05 07:57:40;;;;;;;18.65;6.90;;;14.50;99.90;;;;;;5075309;28;20485;-83
2023/08/05 08:00:09;;;;;;;15.98;5.28;;;14.50;99.90;;;;;;5057199;28;20106;-85
2023/08/05 08:02:39;;;;;;;15.18;5.55;;;14.50;99.90;;;;;;5057595;28;20056;-83
2023/08/05 08:05:07;;;;;;;16.67;6.38;;;14.40;99.90;;;;;;5044057;28;20075;-84
2023/08/05 08:07:35;;;;;;;16.58;6.40;;;14.40;99.90;;;;;;5074250;28;20127;-82
2023/08/05 08:10:02;;;;;;;15.60;5.65;;;14.40;99.90;;;;;;5075084;28;20416;-85
2023/08/05 08:12:29;;;;;;;14.50;5.63;;;14.40;99.90;;;;;;5056437;28;20040;-85
2023/08/05 08:14:55;;;;;;;15.20;6.00;;;14.40;99.90;;;;;;5075132;28;20134;-86
2023/08/05 08:17:22;;;;;;;19.88;6.15;;;14.40;99.90;;;;;;5057553;28;20072;-86
2023/08/05 08:19:50;;;;;;;15.10;5.75;;;14.50;99.90;;;;;;5073407;28;20076;-84
2023/08/05 08:22:17;;;;;;;14.20;5.43;;;14.40;99.90;;;;;;5074586;28;20048;-85
2023/08/05 08:24:43;;;;;;;22.48;5.93;;;14.40;99.90;;;;;;5057717;28;20086;-89
2023/08/05 08:27:11;;;;;;;19.42;5.80;;;14.20;99.90;;;;;;5056711;28;20459;-83
2023/08/05 08:29:38;;;;;;;14.77;5.13;;;14.00;99.90;;;;;;5057780;28;20067;-86
2023/08/05 08:32:05;;;;;;;17.00;6.13;;;14.00;99.90;;;;;;5074406;28;20040;-85
2023/08/05 08:34:31;;;;;;;18.70;5.40;;;14.00;99.90;;;;;;5057575;28;20045;-87
2023/08/05 08:39:44;;;;;;;12.77;4.70;;;14.10;99.90;;;;;;5046805;28;20052;-86
2023/08/05 08:42:10;;;;;;;14.68;4.63;;;14.10;99.90;;;;;;5057049;28;20064;-85
2023/08/05 08:44:37;;;;;;;9.88;4.50;;;14.20;99.90;;;;;;5056682;28;20055;-83
2023/08/05 08:47:06;;;;;;;13.45;4.15;;;14.30;99.90;;;;;;5073862;28;20032;-83
2023/08/05 08:49:33;;;;;;;13.30;4.43;;;14.50;99.90;;;;;;5054884;28;20052;-83
2023/08/05 08:51:59;;;;;;;15.57;5.20;;;14.60;99.90;;;;;;5074000;28;20044;-82
2023/08/05 08:54:26;;;;;;;16.50;4.78;;;14.80;99.90;;;;;;5056906;28;20087;-83
2023/08/05 08:56:54;;;;;;;15.02;5.10;;;14.70;99.90;;;;;;5074441;28;20127;-83
2023/08/05 08:59:21;;;;;;;17.48;4.15;;;14.70;99.90;;;;;;5055814;28;20132;-84
2023/08/05 09:01:48;;;;;;;17.52;3.92;;;14.60;99.90;;;;;;5056454;28;20051;-87
2023/08/05 09:04:15;;;;;;;12.82;3.88;;;14.50;99.90;;;;;;5062042;28;20051;-85
2023/08/05 09:09:27;;;;;;;11.18;3.78;;;14.50;99.90;;;;;;5075077;28;20040;-84
2023/08/05 09:11:54;;;;;;;10.10;3.35;;;14.70;99.90;;;;;;5039247;28;20059;-83
2023/08/05 09:14:21;;;;;;;11.93;3.83;;;14.80;99.90;;;;;;5068823;28;20068;-83
2023/08/05 09:16:47;;;;;;;8.38;2.95;;;14.70;99.90;;;;;;5053859;28;20044;-85
2023/08/05 09:19:14;;;;;;;8.68;2.75;;;14.60;99.90;;;;;;5055861;28;20093;-85
2023/08/05 09:21:41;;;;;;;12.68;3.45;;;14.60;99.90;;;;;;5056299;28;20127;-82
2023/08/05 09:24:07;;;;;;;8.85;2.90;;;14.50;99.90;;;;;;5056252;28;20059;-83
2023/08/05 09:29:20;;;;;;;9.05;3.03;;;14.50;99.90;;;;;;5073350;28;20052;-83
2023/08/05 09:31:47;;;;;;;8.48;2.65;;;14.50;99.90;;;;;;5074727;28;20451;-83
2023/08/05 09:34:13;;;;;;;9.38;3.28;;;14.60;99.90;;;;;;5058297;28;20044;-83
2023/08/05 09:36:41;;;;;;;13.73;2.60;;;14.70;99.90;;;;;;5060034;28;20051;-84
2023/08/05 09:39:13;;;;;;;10.10;2.58;;;14.70;99.90;;;;;;5041538;28;20120;-83
2023/08/05 09:41:40;;;;;;;8.23;2.33;;;14.60;99.90;;;;;;5060279;28;20036;-84
2023/08/05 09:44:10;;;;;;;7.55;2.40;;;14.50;99.90;;;;;;5060405;28;20135;-86
2023/08/05 09:49:22;;;;;;;6.15;2.03;;;14.30;99.90;;;;;;5077441;28;20515;-84
2023/08/05 09:51:50;;;;;;;7.03;2.30;;;14.20;99.90;;;;;;5065953;28;20050;-86
2023/08/05 09:54:17;;;;;;;7.40;2.13;;;14.30;99.90;;;;;;5059683;28;20382;-86
2023/08/05 09:56:44;;;;;;;6.75;1.92;;;14.30;99.90;;;;;;5077296;28;20442;-84
2023/08/05 09:59:12;;;;;;;5.88;2.17;;;14.40;99.90;;;;;;5075775;28;20085;-85
2023/08/05 10:01:39;;;;;;;10.07;2.65;;;14.30;99.90;;;;;;5058804;28;20132;-85
2023/08/05 10:04:05;;;;;;;7.18;2.08;;;14.40;99.90;;;;;;5059845;28;20127;-86
2023/08/05 10:09:19;;;;;;;5.97;1.92;;;14.50;99.90;;;;;;5059917;28;20049;-85
2023/08/05 10:11:46;;;;;;;6.38;1.90;;;14.60;99.90;;;;;;5076968;28;20044;-86
2023/08/05 10:14:12;;;;;;;6.53;1.42;;;14.70;99.90;;;;;;5076253;28;20052;-87
2023/08/05 10:19:25;;;;;;;4.93;1.52;;;14.80;99.90;;;;;;5062432;28;20143;-85
2023/08/05 10:21:51;;;;;;;7.53;1.65;;;15.40;99.90;;;;;;5059568;28;20080;-86
2023/08/05 10:24:19;;;;;;;4.30;1.50;;;15.80;99.90;;;;;;5043100;28;20371;-85
2023/08/05 10:29:33;;;;;;;6.65;1.60;;;16.40;99.90;;;;;;5065200;28;20057;-87
2023/08/05 10:32:00;;;;;;;4.22;1.40;;;16.50;99.90;;;;;;5059661;28;20101;-84
2023/08/05 10:34:27;;;;;;;6.03;1.63;;;16.40;99.90;;;;;;5038197;28;20053;-84
2023/08/05 10:36:54;;;;;;;4.63;1.48;;;16.20;99.90;;;;;;5070553;28;20128;-88
2023/08/05 10:39:20;;;;;;;4.20;1.20;;;15.90;99.90;;;;;;5075835;28;20438;-86
2023/08/05 10:41:47;;;;;;;6.78;1.77;;;15.60;99.90;;;;;;5077097;28;20036;-88
2023/08/05 10:44:14;;;;;;;4.70;1.33;;;15.50;99.90;;;;;;5058156;28;20461;-82
2023/08/05 10:46:41;;;;;;;5.03;1.30;;;15.40;99.90;;;;;;5076426;28;20131;-85
2023/08/05 10:49:07;;;;;;;4.20;1.40;;;15.30;99.90;;;;;;5069461;28;20053;-82
2023/08/05 10:51:34;;;;;;;5.60;1.40;;;15.20;99.90;;;;;;5077684;28;20109;-86
2023/08/05 10:54:01;;;;;;;3.78;1.30;;;15.20;99.90;;;;;;5076932;28;20124;-85
2023/08/05 10:56:28;;;;;;;4.00;1.52;;;15.40;99.90;;;;;;5058445;28;20036;-86
2023/08/05 10:58:55;;;;;;;4.70;1.30;;;15.60;99.90;;;;;;5058729;28;20044;-84
2023/08/05 11:01:21;;;;;;;3.35;1.20;;;15.70;99.90;;;;;;5055169;28;20033;-83
2023/08/05 11:03:49;;;;;;;2.60;1.13;;;15.90;99.90;;;;;;5058613;28;20110;-86
2023/08/05 11:09:02;;;;;;;1.80;0.90;;;16.30;99.90;;;;;;5076393;28;20040;-85
2023/08/05 11:11:30;;;;;;;2.17;1.00;;;16.60;99.90;;;;;;5058225;28;20055;-86
2023/08/05 11:13:58;;;;;;;4.30;1.08;;;16.70;99.90;;;;;;5074983;28;20138;-85
2023/08/05 11:16:25;;;;;;;3.38;1.02;;;16.90;99.90;;;;;;5053947;28;20067;-86
2023/08/05 11:18:52;;;;;;;2.00;0.88;;;17.20;99.90;;;;;;5074802;28;20040;-82
2023/08/05 11:21:19;;;;;;;2.13;0.90;;;17.20;99.90;;;;;;5075606;28;20076;-84
2023/08/05 11:23:45;;;;;;;1.92;0.80;;;17.20;99.90;;;;;;5058326;28;20047;-84
2023/08/05 11:26:15;;;;;;;2.53;0.90;;;17.10;99.90;;;;;;5075459;28;20098;-84
2023/08/05 11:28:42;;;;;;;1.92;0.82;;;17.10;99.90;;;;;;5076526;28;20132;-83
2023/08/05 11:31:08;;;;;;;1.80;0.80;;;17.10;99.90;;;;;;5075760;28;20470;-83
2023/08/05 11:33:35;;;;;;;2.10;0.82;;;17.10;99.90;;;;;;5057702;28;20094;-84
2023/08/05 11:38:47;;;;;;;1.48;0.70;;;16.80;99.90;;;;;;5074991;28;20102;-83
2023/08/05 11:41:14;;;;;;;1.10;0.60;;;16.80;99.90;;;;;;5075280;28;20110;-82
2023/08/05 11:43:41;;;;;;;1.85;0.70;;;16.80;99.90;;;;;;5075501;28;20481;-83
2023/08/05 11:49:13;;;;;;;1.40;0.80;;;16.70;99.90;;;;;;5075572;28;20033;-86
2023/08/05 11:51:39;;;;;;;1.60;0.77;;;16.90;99.90;;;;;;5058323;28;20083;-84
2023/08/05 11:54:06;;;;;;;1.42;0.70;;;17.30;99.90;;;;;;5075022;28;20124;-85
2023/08/05 11:56:34;;;;;;;1.30;0.60;;;17.50;99.90;;;;;;5075308;28;20049;-83
2023/08/05 11:59:00;;;;;;;1.40;0.50;;;17.50;99.90;;;;;;5074672;28;20423;-82
2023/08/05 12:01:27;;;;;;;0.63;0.50;;;17.60;99.90;;;;;;5075098;28;20040;-85
2023/08/05 12:03:57;;;;;;;0.40;0.40;;;17.40;99.90;;;;;;5057587;28;20110;-85
2023/08/05 12:06:25;;;;;;;0.63;0.60;;;17.30;99.90;;;;;;5065996;28;20165;-84
2023/08/05 12:08:52;;;;;;;0.50;0.50;;;17.30;99.90;;;;;;5075190;28;20068;-82
2023/08/05 12:11:19;;;;;;;1.27;0.73;;;17.20;99.90;;;;;;5076234;28;20111;-84
2023/08/05 12:13:45;;;;;;;1.27;0.60;;;17.20;99.90;;;;;;5076878;28;20127;-82
2023/08/05 12:16:12;;;;;;;1.38;0.60;;;17.20;99.90;;;;;;5057773;28;20051;-85
2023/08/05 12:18:39;;;;;;;1.95;0.77;;;17.00;99.90;;;;;;5057627;28;20146;-83
2023/08/05 12:21:06;;;;;;;2.22;0.80;;;17.00;99.90;;;;;;5057828;28;20106;-85
2023/08/05 12:23:39;;;;;;;2.58;0.80;;;16.90;99.90;;;;;;5057611;28;20044;-86
2023/08/05 12:28:51;;;;;;;3.35;0.90;;;16.90;99.90;;;;;;5039360;28;20064;-83
2023/08/05 12:31:18;;;;;;;3.63;1.08;;;17.00;99.90;;;;;;5057410;28;20083;-89
2023/08/05 12:33:45;;;;;;;5.47;1.83;;;17.00;99.90;;;;;;5056849;28;20379;-83
2023/08/05 12:36:13;;;;;;;3.33;1.13;;;17.10;99.90;;;;;;5056967;28;20087;-82
2023/08/05 12:38:40;;;;;;;2.72;0.93;;;17.10;99.90;;;;;;5055953;28;20422;-84
2023/08/05 12:41:06;;;;;;;5.53;1.10;;;17.20;99.90;;;;;;5040602;28;20056;-84
2023/08/05 12:43:33;;;;;;;2.97;1.00;;;17.30;99.90;;;;;;5057248;28;20135;-88
2023/08/05 12:46:02;;;;;;;3.58;1.08;;;17.30;99.90;;;;;;5056590;28;20092;-86
2023/08/05 12:48:29;;;;;;;4.72;1.10;;;17.30;99.90;;;;;;5056573;28;20048;-85
2023/08/05 12:50:55;;;;;;;3.30;1.30;;;17.30;99.90;;;;;;5056919;28;20387;-86
2023/08/05 12:53:22;;;;;;;4.30;1.25;;;17.30;99.90;;;;;;5055871;28;20776;-85
2023/08/05 12:55:50;;;;;;;5.63;1.33;;;17.20;99.90;;;;;;5056601;28;20044;-86
2023/08/05 12:58:17;;;;;;;4.78;1.20;;;17.30;99.90;;;;;;5051621;28;20040;-85
2023/08/05 13:00:43;;;;;;;3.85;1.20;;;17.20;99.90;;;;;;5055561;28;20076;-84
2023/08/05 13:03:10;;;;;;;4.13;1.10;;;17.20;99.90;;;;;;5075249;28;20040;-87
2023/08/05 13:05:37;;;;;;;4.82;1.50;;;17.10;99.90;;;;;;5041343;28;20052;-90
2023/08/05 13:11:14;;;;;;;3.50;1.10;;;17.10;99.90;;;;;;5070366;28;20094;-89
2023/08/05 13:13:41;;;;;;;4.07;1.38;;;17.00;99.90;;;;;;5072426;28;20091;-86
2023/08/05 13:18:55;;;;;;;2.70;1.10;;;16.70;99.90;;;;;;5062485;28;20044;-89
2023/08/05 13:21:21;;;;;;;3.15;1.00;;;16.60;99.90;;;;;;5046751;28;20143;-87
2023/08/05 13:23:48;;;;;;;1.92;0.90;;;16.50;99.90;;;;;;5080242;28;20535;-87
2023/08/05 13:29:00;;;;;;;1.80;0.80;;;16.30;99.90;;;;;;5061659;28;20098;-87
2023/08/05 13:31:27;;;;;;;3.95;1.17;;;16.40;99.90;;;;;;5062530;28;20135;-87
2023/08/05 13:33:54;;;;;;;5.03;1.50;;;16.40;99.90;;;;;;5062257;28;20093;-86